sensor_id;sensor_type;location;lat;lon;timestamp;temperature;humidity
2010;DHT22;1008;47.404;8.502;2023-08-01T00:00:08;22.00;99.90
2010;DHT22;1008;47.404;8.502;2023-08-01T00:02:35;22.00;99.90
2010;DHT22;1008;47.404;8.502;2023-08-01T00:05:02;21.90;99.90
2010;DHT22;1008;47.404;8.502;2023-08-01T00:07:29;21.90;99.90
2010;DHT22;1008;47.404;8.502;2023-08-01T00:09:55;21.90;99.90
2010;DHT22;1008;47.404;8.502;2023-08-01T00:12:24;22.00;99.90
2010;DHT22;1008;47.404;8.502;2023-08-01T00:14:52;22.00;99.90
2010;DHT22;1008;47.404;8.502;2023-08-01T00:17:18;22.00;99.90
2010;DHT22;1008;47.404;8.502;2023-08-01T00:19:46;22.00;99.90
2010;DHT22;1008;47.404;8.502;2023-08-01T00:22:13;22.00;99.90
2010;DHT22;1008;47.404;8.502;2023-08-01T00:24:39;21.90;99.90
2010;DHT22;1008;47.404;8.502;2023-08-01T00:27:07;21.90;99.90
2010;DHT22;1008;47.404;8.502;2023-08-01T00:29:36;22.00;99.90
2010;DHT22;1008;47.404;8.502;2023-08-01T00:32:05;22.00;99.90
2010;DHT22;1008;47.404;8.502;2023-08-01T00:34:31;22.00;99.90
2010;DHT22;1008;47.404;8.502;2023-08-01T00:36:58;22.00;99.90
2010;DHT22;1008;47.404;8.502;2023-08-01T00:39:25;22.20;99.90
2010;DHT22;1008;47.404;8.502;2023-08-01T00:41:51;22.20;99.90
2010;DHT22;1008;47.404;8.502;2023-08-01T00:44:18;22.20;99.90
2010;DHT22;1008;47.404;8.502;2023-08-01T00:46:45;22.20;99.90
2010;DHT22;1008;47.404;8.502;2023-08-01T00:49:13;22.20;99.90
2010;DHT22;1008;47.404;8.502;2023-08-01T00:51:41;22.30;99.90
2010;DHT22;1008;47.404;8.502;2023-08-01T00:54:08;22.30;99.90
2010;DHT22;1008;47.404;8.502;2023-08-01T00:56:36;22.30;99.90
2010;DHT22;1008;47.404;8.502;2023-08-01T00:59:04;22.30;99.90
2010;DHT22;1008;47.404;8.502;2023-08-01T01:01:30;22.30;99.90
2010;DHT22;1008;47.404;8.502;2023-08-01T01:03:57;22.30;99.90
2010;DHT22;1008;47.404;8.502;2023-08-01T01:06:30;22.30;99.90
2010;DHT22;1008;47.404;8.502;2023-08-01T01:08:58;22.40;99.90
2010;DHT22;1008;47.404;8.502;2023-08-01T01:11:25;22.30;99.90
2010;DHT22;1008;47.404;8.502;2023-08-01T01:13:51;22.70;99.90
2010;DHT22;1008;47.404;8.502;2023-08-01T01:16:19;22.30;99.90
2010;DHT22;1008;47.404;8.502;2023-08-01T01:18:46;22.20;99.90
2010;DHT22;1008;47.404;8.502;2023-08-01T01:21:14;22.10;99.90
2010;DHT22;1008;47.404;8.502;2023-08-01T01:23:40;22.10;99.90
2010;DHT22;1008;47.404;8.502;2023-08-01T01:26:08;22.10;99.90
2010;DHT22;1008;47.404;8.502;2023-08-01T01:28:36;22.20;99.90
2010;DHT22;1008;47.404;8.502;2023-08-01T01:31:03;22.10;99.90
2010;DHT22;1008;47.404;8.502;2023-08-01T01:33:30;22.40;99.90
2010;DHT22;1008;47.404;8.502;2023-08-01T01:35:57;22.10;99.90
2010;DHT22;1008;47.404;8.502;2023-08-01T01:38:25;22.10;99.90
2010;DHT22;1008;47.404;8.502;2023-08-01T01:40:52;22.20;99.90
2010;DHT22;1008;47.404;8.502;2023-08-01T01:43:18;22.20;99.90
2010;DHT22;1008;47.404;8.502;2023-08-01T01:45:45;22.30;99.90
2010;DHT22;1008;47.404;8.502;2023-08-01T01:48:12;22.30;99.90
2010;DHT22;1008;47.404;8.502;2023-08-01T01:50:38;22.30;99.90
2010;DHT22;1008;47.404;8.502;2023-08-01T01:53:05;22.20;99.90
2010;DHT22;1008;47.404;8.502;2023-08-01T01:55:33;22.20;99.90
2010;DHT22;1008;47.404;8.502;2023-08-01T01:58:00;22.30;99.90
2010;DHT22;1008;47.404;8.502;2023-08-01T02:00:27;22.30;99.90
2010;DHT22;1008;47.404;8.502;2023-08-01T02:02:54;22.20;99.90
2010;DHT22;1008;47.404;8.502;2023-08-01T02:05:20;22.20;99.90
2010;DHT22;1008;47.404;8.502;2023-08-01T02:07:47;22.30;99.90
2010;DHT22;1008;47.404;8.502;2023-08-01T02:10:14;22.50;99.90
2010;DHT22;1008;47.404;8.502;2023-08-01T02:12:42;22.30;99.90
2010;DHT22;1008;47.404;8.502;2023-08-01T02:15:09;22.30;99.90
2010;DHT22;1008;47.404;8.502;2023-08-01T02:17:35;22.40;99.90
2010;DHT22;1008;47.404;8.502;2023-08-01T02:20:02;22.40;99.90
2010;DHT22;1008;47.404;8.502;2023-08-01T02:22:30;22.40;99.90
2010;DHT22;1008;47.404;8.502;2023-08-01T02:24:57;22.30;99.90
2010;DHT22;1008;47.404;8.502;2023-08-01T02:27:24;22.30;99.90
2010;DHT22;1008;47.404;8.502;2023-08-01T02:29:52;22.30;99.90
2010;DHT22;1008;47.404;8.502;2023-08-01T02:32:18;22.30;99.90
2010;DHT22;1008;47.404;8.502;2023-08-01T02:34:45;22.30;99.90
2010;DHT22;1008;47.404;8.502;2023-08-01T02:37:12;22.20;99.90
2010;DHT22;1008;47.404;8.502;2023-08-01T02:39:38;22.20;99.90
2010;DHT22;1008;47.404;8.502;2023-08-01T02:42:05;22.10;99.90
2010;DHT22;1008;47.404;8.502;2023-08-01T02:44:32;22.30;99.90
2010;DHT22;1008;47.404;8.502;2023-08-01T02:47:00;22.20;99.90
2010;DHT22;1008;47.404;8.502;2023-08-01T02:49:27;22.20;99.90
2010;DHT22;1008;47.404;8.502;2023-08-01T02:51:53;22.10;99.90
2010;DHT22;1008;47.404;8.502;2023-08-01T02:54:20;22.20;99.90
2010;DHT22;1008;47.404;8.502;2023-08-01T02:56:46;22.20;99.90
2010;DHT22;1008;47.404;8.502;2023-08-01T02:59:13;22.20;99.90
2010;DHT22;1008;47.404;8.502;2023-08-01T03:01:40;22.20;99.90
2010;DHT22;1008;47.404;8.502;2023-08-01T03:04:08;22.10;99.90
2010;DHT22;1008;47.404;8.502;2023-08-01T03:06:37;21.90;99.90
2010;DHT22;1008;47.404;8.502;2023-08-01T03:09:04;22.10;99.90
2010;DHT22;1008;47.404;8.502;2023-08-01T03:11:33;21.90;99.90
2010;DHT22;1008;47.404;8.502;2023-08-01T03:14:00;21.90;99.90
2010;DHT22;1008;47.404;8.502;2023-08-01T03:16:26;21.90;99.90
2010;DHT22;1008;47.404;8.502;2023-08-01T03:18:53;22.00;99.90
2010;DHT22;1008;47.404;8.502;2023-08-01T03:21:21;21.70;99.90
2010;DHT22;1008;47.404;8.502;2023-08-01T03:23:48;21.60;99.90
2010;DHT22;1008;47.404;8.502;2023-08-01T03:26:14;21.70;99.90
2010;DHT22;1008;47.404;8.502;2023-08-01T03:28:43;21.60;99.90
2010;DHT22;1008;47.404;8.502;2023-08-01T03:31:10;21.60;99.90
2010;DHT22;1008;47.404;8.502;2023-08-01T03:33:37;21.70;99.90
2010;DHT22;1008;47.404;8.502;2023-08-01T03:36:04;21.60;99.90
2010;DHT22;1008;47.404;8.502;2023-08-01T03:38:32;21.60;99.90
2010;DHT22;1008;47.404;8.502;2023-08-01T03:40:58;21.60;99.90
2010;DHT22;1008;47.404;8.502;2023-08-01T03:43:25;21.50;99.90
2010;DHT22;1008;47.404;8.502;2023-08-01T03:45:52;21.50;99.90
2010;DHT22;1008;47.404;8.502;2023-08-01T03:48:18;21.50;99.90
2010;DHT22;1008;47.404;8.502;2023-08-01T03:50:45;21.50;99.90
2010;DHT22;1008;47.404;8.502;2023-08-01T03:53:12;21.40;99.90
2010;DHT22;1008;47.404;8.502;2023-08-01T03:55:40;21.50;99.90
2010;DHT22;1008;47.404;8.502;2023-08-01T03:58:07;21.40;99.90
2010;DHT22;1008;47.404;8.502;2023-08-01T04:00:34;21.30;99.90
2010;DHT22;1008;47.404;8.502;2023-08-01T04:03:01;21.30;99.90
2010;DHT22;1008;47.404;8.502;2023-08-01T04:05:28;21.30;99.90
2010;DHT22;1008;47.404;8.502;2023-08-01T04:07:54;21.30;99.90
2010;DHT22;1008;47.404;8.502;2023-08-01T04:10:21;21.40;99.90
2010;DHT22;1008;47.404;8.502;2023-08-01T04:12:49;21.40;99.90
2010;DHT22;1008;47.404;8.502;2023-08-01T04:15:16;21.50;99.90
2010;DHT22;1008;47.404;8.502;2023-08-01T04:17:42;21.50;99.90
2010;DHT22;1008;47.404;8.502;2023-08-01T04:20:10;21.50;99.90
2010;DHT22;1008;47.404;8.502;2023-08-01T04:22:37;21.50;99.90
2010;DHT22;1008;47.404;8.502;2023-08-01T04:25:05;21.60;99.90
2010;DHT22;1008;47.404;8.502;2023-08-01T04:27:31;21.60;99.90
2010;DHT22;1008;47.404;8.502;2023-08-01T04:29:59;21.60;99.90
2010;DHT22;1008;47.404;8.502;2023-08-01T04:32:26;21.60;99.90
2010;DHT22;1008;47.404;8.502;2023-08-01T04:34:53;21.50;99.90
2010;DHT22;1008;47.404;8.502;2023-08-01T04:37:19;21.60;99.90
2010;DHT22;1008;47.404;8.502;2023-08-01T04:39:48;21.60;99.90
2010;DHT22;1008;47.404;8.502;2023-08-01T04:42:15;21.60;99.90
2010;DHT22;1008;47.404;8.502;2023-08-01T04:44:42;21.60;99.90
2010;DHT22;1008;47.404;8.502;2023-08-01T04:47:10;21.60;99.90
2010;DHT22;1008;47.404;8.502;2023-08-01T04:49:37;21.60;99.90
2010;DHT22;1008;47.404;8.502;2023-08-01T04:52:05;21.50;99.90
2010;DHT22;1008;47.404;8.502;2023-08-01T04:54:31;21.50;99.90
2010;DHT22;1008;47.404;8.502;2023-08-01T04:56:58;21.50;99.90
2010;DHT22;1008;47.404;8.502;2023-08-01T04:59:25;21.50;99.90
2010;DHT22;1008;47.404;8.502;2023-08-01T05:01:51;21.50;99.90
2010;DHT22;1008;47.404;8.502;2023-08-01T05:04:19;21.30;99.90
2010;DHT22;1008;47.404;8.502;2023-08-01T05:06:46;21.20;99.90
2010;DHT22;1008;47.404;8.502;2023-08-01T05:09:13;21.20;99.90
2010;DHT22;1008;47.404;8.502;2023-08-01T05:11:39;21.00;99.90
2010;DHT22;1008;47.404;8.502;2023-08-01T05:14:06;21.10;99.90
2010;DHT22;1008;47.404;8.502;2023-08-01T05:16:33;21.00;99.90
2010;DHT22;1008;47.404;8.502;2023-08-01T05:18:59;20.90;99.90
2010;DHT22;1008;47.404;8.502;2023-08-01T05:21:27;20.90;99.90
2010;DHT22;1008;47.404;8.502;2023-08-01T05:23:54;20.80;99.90
2010;DHT22;1008;47.404;8.502;2023-08-01T05:26:21;20.80;99.90
2010;DHT22;1008;47.404;8.502;2023-08-01T05:28:47;20.80;99.90
2010;DHT22;1008;47.404;8.502;2023-08-01T05:31:14;20.80;99.90
2010;DHT22;1008;47.404;8.502;2023-08-01T05:33:41;20.80;99.90
2010;DHT22;1008;47.404;8.502;2023-08-01T05:36:07;20.80;99.90
2010;DHT22;1008;47.404;8.502;2023-08-01T05:38:35;20.80;99.90
2010;DHT22;1008;47.404;8.502;2023-08-01T05:41:02;20.70;99.90
2010;DHT22;1008;47.404;8.502;2023-08-01T05:43:29;20.70;99.90
2010;DHT22;1008;47.404;8.502;2023-08-01T05:45:55;20.60;99.90
2010;DHT22;1008;47.404;8.502;2023-08-01T05:48:23;20.60;99.90
2010;DHT22;1008;47.404;8.502;2023-08-01T05:50:49;20.70;99.90
2010;DHT22;1008;47.404;8.502;2023-08-01T05:53:16;20.60;99.90
2010;DHT22;1008;47.404;8.502;2023-08-01T05:55:44;20.50;99.90
2010;DHT22;1008;47.404;8.502;2023-08-01T05:58:11;20.50;99.90
2010;DHT22;1008;47.404;8.502;2023-08-01T06:00:38;20.60;99.90
2010;DHT22;1008;47.404;8.502;2023-08-01T06:03:04;20.80;99.90
2010;DHT22;1008;47.404;8.502;2023-08-01T06:05:31;20.90;99.90
2010;DHT22;1008;47.404;8.502;2023-08-01T06:07:58;20.80;99.90
2010;DHT22;1008;47.404;8.502;2023-08-01T06:10:24;20.80;99.90
2010;DHT22;1008;47.404;8.502;2023-08-01T06:12:52;20.80;99.90
2010;DHT22;1008;47.404;8.502;2023-08-01T06:15:19;21.00;99.90
2010;DHT22;1008;47.404;8.502;2023-08-01T06:17:47;21.00;99.90
2010;DHT22;1008;47.404;8.502;2023-08-01T06:20:13;21.10;99.90
2010;DHT22;1008;47.404;8.502;2023-08-01T06:22:41;21.10;99.90
2010;DHT22;1008;47.404;8.502;2023-08-01T06:25:09;21.10;99.90
2010;DHT22;1008;47.404;8.502;2023-08-01T06:27:36;21.10;99.90
2010;DHT22;1008;47.404;8.502;2023-08-01T06:30:05;21.00;99.90
2010;DHT22;1008;47.404;8.502;2023-08-01T06:32:32;21.00;99.90
2010;DHT22;1008;47.404;8.502;2023-08-01T06:34:58;20.90;99.90
2010;DHT22;1008;47.404;8.502;2023-08-01T06:37:25;20.90;99.90
2010;DHT22;1008;47.404;8.502;2023-08-01T06:39:51;20.90;99.90
2010;DHT22;1008;47.404;8.502;2023-08-01T06:42:18;21.10;99.90
2010;DHT22;1008;47.404;8.502;2023-08-01T06:44:46;20.80;99.90
2010;DHT22;1008;47.404;8.502;2023-08-01T06:47:14;20.30;99.90
2010;DHT22;1008;47.404;8.502;2023-08-01T06:49:40;20.00;99.90
2010;DHT22;1008;47.404;8.502;2023-08-01T06:52:07;19.70;99.90
2010;DHT22;1008;47.404;8.502;2023-08-01T06:54:34;19.50;99.90
2010;DHT22;1008;47.404;8.502;2023-08-01T06:57:01;19.30;99.90
2010;DHT22;1008;47.404;8.502;2023-08-01T06:59:27;19.30;99.90
2010;DHT22;1008;47.404;8.502;2023-08-01T07:01:55;19.20;99.90
2010;DHT22;1008;47.404;8.502;2023-08-01T07:04:23;19.30;99.90
2010;DHT22;1008;47.404;8.502;2023-08-01T07:06:49;19.60;99.90
2010;DHT22;1008;47.404;8.502;2023-08-01T07:09:16;19.50;99.90
2010;DHT22;1008;47.404;8.502;2023-08-01T07:11:43;19.40;99.90
2010;DHT22;1008;47.404;8.502;2023-08-01T07:14:09;19.40;99.90
2010;DHT22;1008;47.404;8.502;2023-08-01T07:16:36;19.40;99.90
2010;DHT22;1008;47.404;8.502;2023-08-01T07:19:03;19.00;99.90
2010;DHT22;1008;47.404;8.502;2023-08-01T07:21:31;18.80;99.90
2010;DHT22;1008;47.404;8.502;2023-08-01T07:23:57;18.60;99.90
2010;DHT22;1008;47.404;8.502;2023-08-01T07:26:24;18.60;99.90
2010;DHT22;1008;47.404;8.502;2023-08-01T07:28:51;18.40;99.90
2010;DHT22;1008;47.404;8.502;2023-08-01T07:31:17;18.40;99.90
2010;DHT22;1008;47.404;8.502;2023-08-01T07:33:44;18.30;99.90
2010;DHT22;1008;47.404;8.502;2023-08-01T07:36:11;18.30;99.90
2010;DHT22;1008;47.404;8.502;2023-08-01T07:38:39;18.30;99.90
2010;DHT22;1008;47.404;8.502;2023-08-01T07:41:06;18.20;99.90
2010;DHT22;1008;47.404;8.502;2023-08-01T07:43:33;18.20;99.90
2010;DHT22;1008;47.404;8.502;2023-08-01T07:46:00;18.20;99.90
2010;DHT22;1008;47.404;8.502;2023-08-01T07:48:27;18.20;99.90
2010;DHT22;1008;47.404;8.502;2023-08-01T07:50:54;18.20;99.90
2010;DHT22;1008;47.404;8.502;2023-08-01T07:53:20;18.20;99.90
2010;DHT22;1008;47.404;8.502;2023-08-01T07:55:48;18.20;99.90
2010;DHT22;1008;47.404;8.502;2023-08-01T07:58:16;18.30;99.90
2010;DHT22;1008;47.404;8.502;2023-08-01T08:00:43;18.30;99.90
2010;DHT22;1008;47.404;8.502;2023-08-01T08:03:09;18.50;99.90
2010;DHT22;1008;47.404;8.502;2023-08-01T08:05:36;18.50;99.90
2010;DHT22;1008;47.404;8.502;2023-08-01T08:08:04;18.50;99.90
2010;DHT22;1008;47.404;8.502;2023-08-01T08:10:31;18.60;99.90
2010;DHT22;1008;47.404;8.502;2023-08-01T08:12:59;18.70;99.90
2010;DHT22;1008;47.404;8.502;2023-08-01T08:15:26;18.70;99.90
2010;DHT22;1008;47.404;8.502;2023-08-01T08:17:55;18.80;99.90
2010;DHT22;1008;47.404;8.502;2023-08-01T08:20:21;18.80;99.90
2010;DHT22;1008;47.404;8.502;2023-08-01T08:22:48;18.80;99.90
2010;DHT22;1008;47.404;8.502;2023-08-01T08:25:15;18.80;99.90
2010;DHT22;1008;47.404;8.502;2023-08-01T08:27:41;18.70;99.90
2010;DHT22;1008;47.404;8.502;2023-08-01T08:30:10;18.50;99.90
2010;DHT22;1008;47.404;8.502;2023-08-01T08:32:37;18.30;99.90
2010;DHT22;1008;47.404;8.502;2023-08-01T08:35:04;18.10;99.90
2010;DHT22;1008;47.404;8.502;2023-08-01T08:37:31;18.00;99.90
2010;DHT22;1008;47.404;8.502;2023-08-01T08:39:58;17.80;99.90
2010;DHT22;1008;47.404;8.502;2023-08-01T08:42:24;17.70;99.90
2010;DHT22;1008;47.404;8.502;2023-08-01T08:44:55;17.80;99.90
2010;DHT22;1008;47.404;8.502;2023-08-01T08:47:25;17.80;99.90
2010;DHT22;1008;47.404;8.502;2023-08-01T08:49:52;17.80;99.90
2010;DHT22;1008;47.404;8.502;2023-08-01T08:52:21;17.90;99.90
2010;DHT22;1008;47.404;8.502;2023-08-01T08:54:48;17.90;99.90
2010;DHT22;1008;47.404;8.502;2023-08-01T08:57:15;17.80;99.90
2010;DHT22;1008;47.404;8.502;2023-08-01T08:59:43;17.80;99.90
2010;DHT22;1008;47.404;8.502;2023-08-01T09:02:10;17.50;99.90
2010;DHT22;1008;47.404;8.502;2023-08-01T09:04:38;17.40;99.90
2010;DHT22;1008;47.404;8.502;2023-08-01T09:07:08;17.40;99.90
2010;DHT22;1008;47.404;8.502;2023-08-01T09:09:36;17.30;99.90
2010;DHT22;1008;47.404;8.502;2023-08-01T09:12:03;17.30;99.90
2010;DHT22;1008;47.404;8.502;2023-08-01T09:14:30;17.20;99.90
2010;DHT22;1008;47.404;8.502;2023-08-01T09:17:06;17.30;99.90
2010;DHT22;1008;47.404;8.502;2023-08-01T09:19:33;17.00;99.90
2010;DHT22;1008;47.404;8.502;2023-08-01T09:22:01;16.90;99.90
2010;DHT22;1008;47.404;8.502;2023-08-01T09:24:28;16.80;99.90
2010;DHT22;1008;47.404;8.502;2023-08-01T09:27:02;16.90;99.90
2010;DHT22;1008;47.404;8.502;2023-08-01T09:29:29;16.90;99.90
2010;DHT22;1008;47.404;8.502;2023-08-01T09:31:57;16.90;99.90
2010;DHT22;1008;47.404;8.502;2023-08-01T09:34:26;17.00;99.90
2010;DHT22;1008;47.404;8.502;2023-08-01T09:36:57;17.10;99.90
2010;DHT22;1008;47.404;8.502;2023-08-01T09:39:26;16.90;99.90
2010;DHT22;1008;47.404;8.502;2023-08-01T09:41:56;17.20;99.90
2010;DHT22;1008;47.404;8.502;2023-08-01T09:44:23;17.50;99.90
2010;DHT22;1008;47.404;8.502;2023-08-01T09:46:58;17.20;99.90
2010;DHT22;1008;47.404;8.502;2023-08-01T09:49:26;17.30;99.90
2010;DHT22;1008;47.404;8.502;2023-08-01T09:51:53;17.40;99.90
2010;DHT22;1008;47.404;8.502;2023-08-01T09:54:21;17.50;99.90
2010;DHT22;1008;47.404;8.502;2023-08-01T09:56:50;17.60;99.90
2010;DHT22;1008;47.404;8.502;2023-08-01T09:59:19;17.90;99.90
2010;DHT22;1008;47.404;8.502;2023-08-01T10:01:47;17.90;99.90
2010;DHT22;1008;47.404;8.502;2023-08-01T10:04:16;18.00;99.90
2010;DHT22;1008;47.404;8.502;2023-08-01T10:06:48;18.00;99.90
2010;DHT22;1008;47.404;8.502;2023-08-01T10:09:16;18.10;99.90
2010;DHT22;1008;47.404;8.502;2023-08-01T10:11:45;18.30;99.90
2010;DHT22;1008;47.404;8.502;2023-08-01T10:14:14;18.50;99.90
2010;DHT22;1008;47.404;8.502;2023-08-01T10:16:41;18.60;99.90
2010;DHT22;1008;47.404;8.502;2023-08-01T10:19:09;18.50;99.90
2010;DHT22;1008;47.404;8.502;2023-08-01T10:21:37;18.50;99.90
2010;DHT22;1008;47.404;8.502;2023-08-01T10:24:06;18.40;99.90
2010;DHT22;1008;47.404;8.502;2023-08-01T10:26:33;18.40;99.90
2010;DHT22;1008;47.404;8.502;2023-08-01T10:29:00;18.00;99.90
2010;DHT22;1008;47.404;8.502;2023-08-01T10:31:29;17.50;99.90
2010;DHT22;1008;47.404;8.502;2023-08-01T10:34:04;17.50;99.90
2010;DHT22;1008;47.404;8.502;2023-08-01T10:36:31;17.30;99.90
2010;DHT22;1008;47.404;8.502;2023-08-01T10:39:00;17.20;99.90
2010;DHT22;1008;47.404;8.502;2023-08-01T10:41:28;17.30;99.90
2010;DHT22;1008;47.404;8.502;2023-08-01T10:44:05;17.10;99.90
2010;DHT22;1008;47.404;8.502;2023-08-01T10:46:47;17.00;99.90
2010;DHT22;1008;47.404;8.502;2023-08-01T10:49:14;17.00;99.90
2010;DHT22;1008;47.404;8.502;2023-08-01T10:51:40;17.00;99.90
2010;DHT22;1008;47.404;8.502;2023-08-01T10:54:18;17.10;99.90
2010;DHT22;1008;47.404;8.502;2023-08-01T10:56:45;17.50;99.90
2010;DHT22;1008;47.404;8.502;2023-08-01T10:59:12;17.30;99.90
2010;DHT22;1008;47.404;8.502;2023-08-01T11:01:45;17.50;99.90
2010;DHT22;1008;47.404;8.502;2023-08-01T11:04:16;17.40;99.90
2010;DHT22;1008;47.404;8.502;2023-08-01T11:06:44;17.50;99.90
2010;DHT22;1008;47.404;8.502;2023-08-01T11:09:19;17.30;99.90
2010;DHT22;1008;47.404;8.502;2023-08-01T11:11:48;17.40;99.90
2010;DHT22;1008;47.404;8.502;2023-08-01T11:14:16;17.80;99.90
2010;DHT22;1008;47.404;8.502;2023-08-01T11:16:43;17.70;99.90
2010;DHT22;1008;47.404;8.502;2023-08-01T11:19:19;17.70;99.90
2010;DHT22;1008;47.404;8.502;2023-08-01T11:21:46;17.60;99.90
2010;DHT22;1008;47.404;8.502;2023-08-01T11:24:13;17.60;99.90
2010;DHT22;1008;47.404;8.502;2023-08-01T11:26:41;17.60;99.90
2010;DHT22;1008;47.404;8.502;2023-08-01T11:29:09;17.70;99.90
2010;DHT22;1008;47.404;8.502;2023-08-01T11:31:36;17.60;99.90
2010;DHT22;1008;47.404;8.502;2023-08-01T11:34:02;17.70;99.90
2010;DHT22;1008;47.404;8.502;2023-08-01T11:36:31;17.80;99.90
2010;DHT22;1008;47.404;8.502;2023-08-01T11:38:59;17.80;99.90
2010;DHT22;1008;47.404;8.502;2023-08-01T11:41:27;17.60;99.90
2010;DHT22;1008;47.404;8.502;2023-08-01T11:43:54;17.60;99.90
2010;DHT22;1008;47.404;8.502;2023-08-01T11:46:21;17.60;99.90
2010;DHT22;1008;47.404;8.502;2023-08-01T11:48:48;17.50;99.90
2010;DHT22;1008;47.404;8.502;2023-08-01T11:51:16;17.50;99.90
2010;DHT22;1008;47.404;8.502;2023-08-01T11:53:44;17.60;99.90
2010;DHT22;1008;47.404;8.502;2023-08-01T11:56:20;17.60;99.90
2010;DHT22;1008;47.404;8.502;2023-08-01T11:58:47;17.60;99.90
2010;DHT22;1008;47.404;8.502;2023-08-01T12:01:14;17.60;99.90
2010;DHT22;1008;47.404;8.502;2023-08-01T12:03:45;17.60;99.90
2010;DHT22;1008;47.404;8.502;2023-08-01T12:06:12;17.70;99.90
2010;DHT22;1008;47.404;8.502;2023-08-01T12:08:40;17.70;99.90
2010;DHT22;1008;47.404;8.502;2023-08-01T12:11:19;17.70;99.90
2010;DHT22;1008;47.404;8.502;2023-08-01T12:13:46;17.70;99.90
2010;DHT22;1008;47.404;8.502;2023-08-01T12:16:13;17.70;99.90
2010;DHT22;1008;47.404;8.502;2023-08-01T12:18:45;17.70;99.90
2010;DHT22;1008;47.404;8.502;2023-08-01T12:21:13;17.80;99.90
2010;DHT22;1008;47.404;8.502;2023-08-01T12:23:39;18.00;99.90
2010;DHT22;1008;47.404;8.502;2023-08-01T12:26:07;18.10;99.90
2010;DHT22;1008;47.404;8.502;2023-08-01T12:28:35;18.50;99.90
2010;DHT22;1008;47.404;8.502;2023-08-01T12:31:02;18.70;99.90
2010;DHT22;1008;47.404;8.502;2023-08-01T12:33:29;18.60;99.90
2010;DHT22;1008;47.404;8.502;2023-08-01T12:35:56;18.70;99.90
2010;DHT22;1008;47.404;8.502;2023-08-01T12:38:23;18.70;99.90
2010;DHT22;1008;47.404;8.502;2023-08-01T12:40:51;18.70;99.90
2010;DHT22;1008;47.404;8.502;2023-08-01T12:43:17;18.70;99.90
2010;DHT22;1008;47.404;8.502;2023-08-01T12:45:46;18.80;99.90
2010;DHT22;1008;47.404;8.502;2023-08-01T12:48:13;18.80;99.90
2010;DHT22;1008;47.404;8.502;2023-08-01T12:50:43;19.20;99.90
2010;DHT22;1008;47.404;8.502;2023-08-01T12:53:10;19.10;99.90
2010;DHT22;1008;47.404;8.502;2023-08-01T12:55:37;19.40;99.90
2010;DHT22;1008;47.404;8.502;2023-08-01T12:58:04;19.40;99.90
2010;DHT22;1008;47.404;8.502;2023-08-01T13:00:30;19.40;99.90
2010;DHT22;1008;47.404;8.502;2023-08-01T13:02:59;19.60;99.90
2010;DHT22;1008;47.404;8.502;2023-08-01T13:05:25;19.50;99.90
2010;DHT22;1008;47.404;8.502;2023-08-01T13:07:52;19.50;99.90
2010;DHT22;1008;47.404;8.502;2023-08-01T13:10:19;19.50;99.90
2010;DHT22;1008;47.404;8.502;2023-08-01T13:12:45;19.90;99.90
2010;DHT22;1008;47.404;8.502;2023-08-01T13:15:12;19.90;99.90
2010;DHT22;1008;47.404;8.502;2023-08-01T13:17:38;20.50;99.90
2010;DHT22;1008;47.404;8.502;2023-08-01T13:20:08;20.70;99.90
2010;DHT22;1008;47.404;8.502;2023-08-01T13:22:34;20.30;99.90
2010;DHT22;1008;47.404;8.502;2023-08-01T13:25:01;20.10;99.90
2010;DHT22;1008;47.404;8.502;2023-08-01T13:27:29;20.20;99.90
2010;DHT22;1008;47.404;8.502;2023-08-01T13:29:55;20.00;99.90
2010;DHT22;1008;47.404;8.502;2023-08-01T13:32:22;19.90;99.90
2010;DHT22;1008;47.404;8.502;2023-08-01T13:34:49;19.80;99.90
2010;DHT22;1008;47.404;8.502;2023-08-01T13:37:17;19.50;99.90
2010;DHT22;1008;47.404;8.502;2023-08-01T13:39:43;19.20;99.90
2010;DHT22;1008;47.404;8.502;2023-08-01T13:42:11;19.20;99.90
2010;DHT22;1008;47.404;8.502;2023-08-01T13:44:38;19.10;99.90
2010;DHT22;1008;47.404;8.502;2023-08-01T13:47:05;19.10;99.90
2010;DHT22;1008;47.404;8.502;2023-08-01T13:49:32;18.90;99.90
2010;DHT22;1008;47.404;8.502;2023-08-01T13:51:59;18.60;99.90
2010;DHT22;1008;47.404;8.502;2023-08-01T13:54:27;18.60;99.90
2010;DHT22;1008;47.404;8.502;2023-08-01T13:56:54;18.60;99.90
2010;DHT22;1008;47.404;8.502;2023-08-01T13:59:21;18.60;99.90
2010;DHT22;1008;47.404;8.502;2023-08-01T14:01:47;18.20;99.90
2010;DHT22;1008;47.404;8.502;2023-08-01T14:04:14;18.20;99.90
2010;DHT22;1008;47.404;8.502;2023-08-01T14:06:41;18.20;99.90
2010;DHT22;1008;47.404;8.502;2023-08-01T14:09:08;18.20;99.90
2010;DHT22;1008;47.404;8.502;2023-08-01T14:11:36;18.20;99.90
2010;DHT22;1008;47.404;8.502;2023-08-01T14:14:03;18.30;99.90
2010;DHT22;1008;47.404;8.502;2023-08-01T14:16:30;18.40;99.90
2010;DHT22;1008;47.404;8.502;2023-08-01T14:18:57;18.70;99.90
2010;DHT22;1008;47.404;8.502;2023-08-01T14:21:23;18.80;99.90
2010;DHT22;1008;47.404;8.502;2023-08-01T14:23:50;18.90;99.90
2010;DHT22;1008;47.404;8.502;2023-08-01T14:26:17;18.90;99.90
2010;DHT22;1008;47.404;8.502;2023-08-01T14:28:45;19.00;99.90
2010;DHT22;1008;47.404;8.502;2023-08-01T14:31:12;18.80;99.90
2010;DHT22;1008;47.404;8.502;2023-08-01T14:33:39;18.80;99.90
2010;DHT22;1008;47.404;8.502;2023-08-01T14:36:08;18.70;99.90
2010;DHT22;1008;47.404;8.502;2023-08-01T14:38:35;18.70;99.90
2010;DHT22;1008;47.404;8.502;2023-08-01T14:41:02;18.40;99.90
2010;DHT22;1008;47.404;8.502;2023-08-01T14:43:28;18.20;99.90
2010;DHT22;1008;47.404;8.502;2023-08-01T14:45:56;18.10;99.90
2010;DHT22;1008;47.404;8.502;2023-08-01T14:48:23;17.50;99.90
2010;DHT22;1008;47.404;8.502;2023-08-01T14:50:50;17.40;99.90
2010;DHT22;1008;47.404;8.502;2023-08-01T14:53:16;17.30;99.90
2010;DHT22;1008;47.404;8.502;2023-08-01T14:55:43;17.30;99.90
2010;DHT22;1008;47.404;8.502;2023-08-01T14:58:10;17.50;99.90
2010;DHT22;1008;47.404;8.502;2023-08-01T15:00:37;17.50;99.90
2010;DHT22;1008;47.404;8.502;2023-08-01T15:03:05;17.50;99.90
2010;DHT22;1008;47.404;8.502;2023-08-01T15:05:31;17.50;99.90
2010;DHT22;1008;47.404;8.502;2023-08-01T15:07:58;17.50;99.90
2010;DHT22;1008;47.404;8.502;2023-08-01T15:10:25;17.70;99.90
2010;DHT22;1008;47.404;8.502;2023-08-01T15:12:52;17.70;99.90
2010;DHT22;1008;47.404;8.502;2023-08-01T15:15:19;17.80;99.90
2010;DHT22;1008;47.404;8.502;2023-08-01T15:17:45;18.00;99.90
2010;DHT22;1008;47.404;8.502;2023-08-01T15:20:14;17.90;99.90
2010;DHT22;1008;47.404;8.502;2023-08-01T15:22:40;18.10;99.90
2010;DHT22;1008;47.404;8.502;2023-08-01T15:25:07;18.20;99.90
2010;DHT22;1008;47.404;8.502;2023-08-01T15:27:34;18.30;99.90
2010;DHT22;1008;47.404;8.502;2023-08-01T15:30:01;18.10;99.90
2010;DHT22;1008;47.404;8.502;2023-08-01T15:32:28;18.00;99.90
2010;DHT22;1008;47.404;8.502;2023-08-01T15:34:55;18.20;99.90
2010;DHT22;1008;47.404;8.502;2023-08-01T15:37:23;18.10;99.90
2010;DHT22;1008;47.404;8.502;2023-08-01T15:39:49;17.90;99.90
2010;DHT22;1008;47.404;8.502;2023-08-01T15:42:16;17.90;99.90
2010;DHT22;1008;47.404;8.502;2023-08-01T15:44:43;18.10;99.90
2010;DHT22;1008;47.404;8.502;2023-08-01T15:47:09;18.20;99.90
2010;DHT22;1008;47.404;8.502;2023-08-01T15:49:36;18.40;99.90
2010;DHT22;1008;47.404;8.502;2023-08-01T15:52:03;18.60;99.90
2010;DHT22;1008;47.404;8.502;2023-08-01T15:54:32;18.70;99.90
2010;DHT22;1008;47.404;8.502;2023-08-01T15:56:58;18.80;99.90
2010;DHT22;1008;47.404;8.502;2023-08-01T15:59:25;19.10;99.90
2010;DHT22;1008;47.404;8.502;2023-08-01T16:01:52;19.40;99.90